Time;durP1;ratioP1;P1;durP2;ratioP2;P2;SDS_P1;SDS_P2;PMS_P1;PMS_P2;Temp;Humidity;BMP_temperature;BMP_pressure;BME280_temperature;BME280_humidity;BME280_pressure;Samples;Min_cycle;Max_cycle;Signal;HPM_P1;HPM_P2
2022/12/16 00:01:11;;;;;;;27.00;13.60;;;0.40;99.90;;;;;;5009306;28;20522;-72
2022/12/16 00:03:38;;;;;;;27.80;14.33;;;0.70;99.90;;;;;;5009888;28;20488;-72
2022/12/16 00:06:06;;;;;;;21.90;13.17;;;0.50;99.90;;;;;;5010224;28;20460;-71
2022/12/16 00:08:35;;;;;;;24.73;13.97;;;0.40;99.90;;;;;;5009934;28;20487;-70
2022/12/16 00:11:02;;;;;;;18.10;11.87;;;0.40;99.90;;;;;;5009640;28;20487;-71
2022/12/16 00:13:32;;;;;;;31.60;13.90;;;0.40;99.90;;;;;;5010805;28;20507;-70
2022/12/16 00:16:00;;;;;;;24.53;12.70;;;0.40;99.90;;;;;;5009519;28;22994;-71
2022/12/16 00:18:27;;;;;;;24.67;13.70;;;0.40;99.90;;;;;;5009586;28;20480;-70
2022/12/16 00:20:55;;;;;;;24.70;12.93;;;0.40;99.90;;;;;;4990047;28;20493;-70
2022/12/16 00:23:22;;;;;;;19.23;11.77;;;0.30;99.90;;;;;;5008029;28;20570;-70
2022/12/16 00:25:51;;;;;;;16.67;11.33;;;0.40;99.90;;;;;;5001553;28;20752;-70
2022/12/16 00:28:21;;;;;;;17.43;11.30;;;0.50;99.90;;;;;;4993553;28;20444;-71
2022/12/16 00:30:51;;;;;;;19.93;11.30;;;0.40;99.90;;;;;;4993026;28;20933;-70
2022/12/16 00:33:18;;;;;;;20.87;11.20;;;0.40;99.90;;;;;;5008438;28;20545;-70
2022/12/16 00:35:52;;;;;;;22.43;10.60;;;0.50;99.90;;;;;;5009234;28;20484;-70
2022/12/16 00:38:19;;;;;;;22.60;11.60;;;0.50;99.90;;;;;;4990468;28;20444;-70
2022/12/16 00:40:47;;;;;;;16.30;10.70;;;0.40;99.90;;;;;;4989569;28;21053;-71
2022/12/16 00:43:14;;;;;;;19.50;11.13;;;0.40;99.90;;;;;;4989673;28;20524;-71
2022/12/16 00:48:24;;;;;;;24.93;14.03;;;0.60;99.90;;;;;;4994767;28;20490;-72
2022/12/16 00:50:52;;;;;;;20.90;13.10;;;0.40;99.90;;;;;;4989609;28;20495;-71
2022/12/16 00:53:19;;;;;;;20.87;10.97;;;0.50;99.90;;;;;;4989513;28;20495;-72
2022/12/16 00:55:48;;;;;;;23.30;12.93;;;0.50;99.90;;;;;;4989384;28;20821;-71
2022/12/16 00:58:15;;;;;;;21.93;11.53;;;0.60;99.90;;;;;;4989523;28;20452;-71
2022/12/16 01:00:42;;;;;;;21.30;10.70;;;0.50;99.90;;;;;;4989391;28;20459;-71
2022/12/16 01:03:09;;;;;;;19.27;11.33;;;0.50;99.90;;;;;;4989855;28;20826;-71
2022/12/16 01:05:39;;;;;;;16.90;10.33;;;1.30;99.90;;;;;;5010012;28;20891;-71
2022/12/16 01:08:06;;;;;;;20.00;10.80;;;0.50;99.90;;;;;;5009673;28;20444;-71
2022/12/16 01:10:33;;;;;;;21.27;10.57;;;0.40;99.90;;;;;;5008520;28;20940;-73
2022/12/16 01:13:00;;;;;;;21.03;10.83;;;0.40;99.90;;;;;;5009281;28;20957;-71
2022/12/16 01:15:27;;;;;;;17.63;10.73;;;0.40;99.90;;;;;;5008951;28;20448;-71
2022/12/16 01:17:57;;;;;;;20.07;10.47;;;0.40;99.90;;;;;;5009330;28;20914;-76
2022/12/16 01:20:24;;;;;;;23.70;11.80;;;0.40;99.90;;;;;;5013214;28;20454;-70
2022/12/16 01:22:53;;;;;;;23.57;11.90;;;0.40;99.90;;;;;;5011938;28;21030;-71
2022/12/16 01:25:19;;;;;;;22.23;11.23;;;0.40;99.90;;;;;;5007034;28;20989;-70
2022/12/16 01:27:54;;;;;;;23.87;12.13;;;1.20;99.90;;;;;;4988896;28;20484;-70
2022/12/16 01:30:22;;;;;;;19.20;11.77;;;0.50;99.90;;;;;;4988999;28;20479;-71
2022/12/16 01:32:48;;;;;;;20.60;11.67;;;0.50;99.90;;;;;;4990068;28;20457;-71
2022/12/16 01:35:15;;;;;;;22.03;10.67;;;0.50;99.90;;;;;;4988984;28;20984;-71
2022/12/16 01:37:48;;;;;;;19.07;12.00;;;1.30;99.90;;;;;;5002193;28;20999;-70
2022/12/16 01:40:19;;;;;;;19.60;10.67;;;0.50;99.90;;;;;;5008648;28;20805;-70
2022/12/16 01:42:46;;;;;;;21.57;10.83;;;0.40;99.90;;;;;;5008385;28;20518;-70
2022/12/16 01:45:32;;;;;;;17.30;10.33;;;0.50;99.90;;;;;;5008670;28;20553;-71
2022/12/16 01:48:03;;;;;;;19.40;11.40;;;0.50;99.90;;;;;;5008579;28;20462;-72
2022/12/16 01:50:31;;;;;;;18.20;10.90;;;0.50;99.90;;;;;;5009002;28;20808;-71
2022/12/16 01:53:02;;;;;;;19.63;11.70;;;0.40;99.90;;;;;;5008505;28;20479;-71
2022/12/16 01:55:35;;;;;;;25.80;12.23;;;0.40;99.90;;;;;;5007539;28;20478;-71
2022/12/16 01:58:07;;;;;;;19.43;11.33;;;0.40;99.90;;;;;;5008619;28;20546;-70
2022/12/16 02:00:34;;;;;;;18.47;11.33;;;0.50;99.90;;;;;;5008404;28;20542;-71
2022/12/16 02:03:02;;;;;;;18.53;10.60;;;0.40;99.90;;;;;;5008395;28;20451;-70
2022/12/16 02:05:35;;;;;;;17.93;10.87;;;1.30;99.90;;;;;;5008014;28;20918;-70
2022/12/16 02:08:10;;;;;;;19.77;11.13;;;0.50;99.90;;;;;;5007880;28;20448;-71
2022/12/16 02:10:58;;;;;;;21.23;11.37;;;0.50;99.90;;;;;;5007852;28;20990;-70
2022/12/16 02:13:34;;;;;;;23.67;12.60;;;0.50;99.90;;;;;;5007187;28;20468;-71
2022/12/16 02:16:10;;;;;;;19.27;10.80;;;0.90;99.90;;;;;;5012185;28;20505;-71
2022/12/16 02:18:44;;;;;;;16.40;11.07;;;0.70;99.90;;;;;;5012147;28;20479;-70
2022/12/16 02:21:35;;;;;;;17.53;10.20;;;0.40;99.90;;;;;;5013057;28;20451;-71
2022/12/16 02:24:41;;;;;;;23.07;11.40;;;0.40;99.90;;;;;;5004124;28;20507;-71
2022/12/16 02:27:35;;;;;;;18.27;11.13;;;0.50;99.90;;;;;;4992571;28;20502;-71
2022/12/16 02:30:11;;;;;;;19.00;10.93;;;0.70;99.90;;;;;;5005895;28;20490;-72
2022/12/16 02:32:53;;;;;;;21.53;10.47;;;0.40;99.90;;;;;;5013109;28;21012;-71
2022/12/16 02:35:27;;;;;;;22.23;12.40;;;0.40;99.90;;;;;;4995168;28;20512;-71
2022/12/16 02:38:08;;;;;;;20.60;12.10;;;0.40;99.90;;;;;;4994465;28;20455;-72
2022/12/16 02:40:41;;;;;;;20.90;11.87;;;0.40;99.90;;;;;;4994026;28;20448;-72
2022/12/16 02:43:14;;;;;;;17.57;11.97;;;1.20;99.90;;;;;;4992705;28;20547;-73
2022/12/16 02:45:42;;;;;;;20.80;12.20;;;0.40;99.90;;;;;;5002651;28;20488;-71
2022/12/16 02:48:10;;;;;;;18.27;12.23;;;0.40;99.90;;;;;;5012112;28;20505;-71
2022/12/16 02:50:42;;;;;;;18.17;12.07;;;0.40;99.90;;;;;;5007105;28;20468;-71
2022/12/16 02:53:16;;;;;;;22.80;12.53;;;0.40;99.90;;;;;;4992708;28;20481;-71
2022/12/16 02:55:54;;;;;;;22.73;13.13;;;0.50;99.90;;;;;;5005050;28;20466;-71
2022/12/16 03:01:17;;;;;;;17.73;11.70;;;0.50;99.90;;;;;;5010824;28;20456;-71
2022/12/16 03:03:52;;;;;;;19.00;12.00;;;0.40;99.90;;;;;;5011254;28;20455;-72
2022/12/16 03:06:22;;;;;;;19.43;12.13;;;0.50;99.90;;;;;;5011300;28;20501;-71
2022/12/16 03:08:53;;;;;;;20.03;13.03;;;0.40;99.90;;;;;;5011590;28;20455;-71
2022/12/16 03:11:21;;;;;;;20.47;13.83;;;0.40;99.90;;;;;;5011315;28;21003;-69
2022/12/16 03:13:56;;;;;;;24.93;14.53;;;0.40;99.90;;;;;;5012067;28;20458;-72
2022/12/16 03:16:27;;;;;;;23.57;14.93;;;0.40;99.90;;;;;;5011955;28;21034;-70
2022/12/16 03:18:59;;;;;;;29.93;15.63;;;0.40;99.90;;;;;;5010550;28;20472;-73
2022/12/16 03:21:34;;;;;;;25.70;15.13;;;0.30;99.90;;;;;;5012349;28;20956;-71
2022/12/16 03:24:03;;;;;;;23.70;13.93;;;0.30;99.90;;;;;;5012877;28;20484;-76
2022/12/16 03:26:34;;;;;;;26.83;13.93;;;0.20;99.90;;;;;;5017136;28;21179;-73
2022/12/16 03:29:05;;;;;;;24.10;13.87;;;0.10;99.90;;;;;;5011827;28;20531;-75
2022/12/16 03:31:38;;;;;;;28.37;15.90;;;0.10;99.90;;;;;;5011511;28;20547;-73
2022/12/16 03:34:13;;;;;;;22.80;14.87;;;0.20;99.90;;;;;;5011739;28;20535;-73
2022/12/16 03:36:44;;;;;;;24.73;15.77;;;0.20;99.90;;;;;;5010019;28;20499;-73
2022/12/16 03:39:13;;;;;;;28.27;16.17;;;0.20;99.90;;;;;;5011333;28;20463;-76
2022/12/16 03:41:43;;;;;;;24.87;15.03;;;0.00;99.90;;;;;;5011271;28;20529;-73
2022/12/16 03:44:12;;;;;;;25.70;15.70;;;0.30;99.90;;;;;;5011022;28;20541;-74
2022/12/16 03:46:39;;;;;;;28.93;16.07;;;-0.20;99.90;;;;;;5010978;28;20541;-75
2022/12/16 03:49:07;;;;;;;28.17;16.63;;;-0.10;99.90;;;;;;5011180;28;20534;-74
2022/12/16 03:51:34;;;;;;;29.27;14.70;;;0.00;99.90;;;;;;5009049;28;20539;-73
2022/12/16 03:54:01;;;;;;;31.73;16.90;;;0.00;99.90;;;;;;5006736;28;20531;-73
2022/12/16 03:56:36;;;;;;;35.23;21.40;;;-0.10;99.90;;;;;;4999699;28;20536;-73
2022/12/16 03:59:02;;;;;;;28.80;16.60;;;-0.40;99.90;;;;;;4990662;28;20490;-73
2022/12/16 04:01:29;;;;;;;28.37;16.93;;;-0.30;99.90;;;;;;5009088;28;20460;-73
2022/12/16 04:03:56;;;;;;;30.73;16.60;;;-0.40;99.90;;;;;;5010603;28;20521;-73
2022/12/16 04:06:24;;;;;;;35.53;17.20;;;-0.30;99.90;;;;;;5010607;28;20487;-73
2022/12/16 04:08:51;;;;;;;26.00;16.33;;;-0.30;99.90;;;;;;5009641;28;20589;-73
2022/12/16 04:25:14;;;;;;;38.57;20.93;;;-1.20;99.90;;;;;;4991684;28;20638;-73
2022/12/16 04:27:45;;;;;;;33.30;18.27;;;-1.00;99.90;;;;;;5004849;28;20468;-76
2022/12/16 04:30:19;;;;;;;33.87;19.50;;;-0.90;99.90;;;;;;5001093;28;20824;-75
